Time;durP1;ratioP1;P1;durP2;ratioP2;P2;SDS_P1;SDS_P2;PMS_P1;PMS_P2;Temp;Humidity;BMP_temperature;BMP_pressure;BME280_temperature;BME280_humidity;BME280_pressure;Samples;Min_cycle;Max_cycle;Signal;HPM_P1;HPM_P2
2023/06/30 00:00:25;;;;;;;;;;;;;;;;;;5136668;27;1230;-65
2023/06/30 00:02:50;;;;;;;;;;;;;;;;;;5136162;27;905;-65
2023/06/30 00:05:16;;;;;;;;;;;;;;;;;;5136752;27;1118;-64
2023/06/30 00:07:42;;;;;;;;;;;;;;;;;;5135801;27;1211;-64
2023/06/30 00:10:08;;;;;;;;;;;;;;;;;;5136861;27;825;-64
2023/06/30 00:12:33;;;;;;;;;;;;;;;;;;5136449;27;873;-65
2023/06/30 00:14:59;;;;;;;;;;;;;;;;;;5136616;27;841;-65
2023/06/30 00:17:24;;;;;;;;;;;;;;;;;;5136811;27;889;-65
2023/06/30 00:19:50;;;;;;;;;;;;;;;;;;5136133;27;1909;-65
2023/06/30 00:22:16;;;;;;;;;;;;;;;;;;5136232;27;836;-65
2023/06/30 00:24:41;;;;;;;;;;;;;;;;;;5118049;27;924;-65
2023/06/30 00:27:07;;;;;;;;;;;;;;;;;;5136690;27;861;-64
2023/06/30 00:29:32;;;;;;;;;;;;;;;;;;5136804;27;848;-64
2023/06/30 00:31:57;;;;;;;;;;;;;;;;;;5135988;27;822;-65
2023/06/30 00:34:22;;;;;;;;;;;;;;;;;;5118459;27;877;-65
2023/06/30 00:36:48;;;;;;;;;;;;;;;;;;5137106;27;841;-65
2023/06/30 00:39:13;;;;;;;;;;;;;;;;;;5137248;27;1905;-65
2023/06/30 00:41:38;;;;;;;;;;;;;;;;;;5136928;27;852;-65
2023/06/30 00:44:04;;;;;;;;;;;;;;;;;;5136604;27;907;-66
2023/06/30 00:46:29;;;;;;;;;;;;;;;;;;5136446;27;892;-65
2023/06/30 00:48:54;;;;;;;;;;;;;;;;;;5136595;27;1149;-65
2023/06/30 00:51:20;;;;;;;;;;;;;;;;;;5135781;27;1003;-65
2023/06/30 00:53:45;;;;;;;;;;;;;;;;;;5136260;27;931;-65
2023/06/30 00:56:10;;;;;;;;;;;;;;;;;;5137043;27;1005;-66
2023/06/30 00:58:36;;;;;;;;;;;;;;;;;;5136780;27;1970;-66
2023/06/30 01:01:06;;;;;;;;;;;;;;;;;;5117702;27;944;-65
2023/06/30 01:03:38;;;;;;;;;;;;;;;;;;5136595;27;829;-66
2023/06/30 01:06:10;;;;;;;;;;;;;;;;;;5117451;27;1321;-65
2023/06/30 01:08:38;;;;;;;;;;;;;;;;;;5135903;27;913;-66
2023/06/30 01:11:03;;;;;;;;;;;;;;;;;;5135366;27;841;-65
2023/06/30 01:13:29;;;;;;;;;;;;;;;;;;5135312;27;1012;-66
2023/06/30 01:15:56;;;;;;;;;;;;;;;;;;5134885;27;1233;-65
2023/06/30 01:18:22;;;;;;;;;;;;;;;;;;5135699;27;1963;-66
2023/06/30 01:20:48;;;;;;;;;;;;;;;;;;5135586;27;923;-65
2023/06/30 01:23:19;;;;;;;;;;;;;;;;;;5135145;27;1106;-66
2023/06/30 01:25:46;;;;;;;;;;;;;;;;;;5134767;27;909;-65
2023/06/30 01:28:12;;;;;;;;;;;;;;;;;;5135578;27;833;-65
2023/06/30 01:30:38;;;;;;;;;;;;;;;;;;5135023;27;952;-66
2023/06/30 01:33:03;;;;;;;;;;;;;;;;;;5133507;27;1285;-66
2023/06/30 01:35:29;;;;;;;;;;;;;;;;;;5122271;27;1139;-65
2023/06/30 01:37:55;;;;;;;;;;;;;;;;;;5132858;27;1956;-65
2023/06/30 01:40:21;;;;;;;;;;;;;;;;;;5133692;27;1151;-65
2023/06/30 01:42:47;;;;;;;;;;;;;;;;;;5134250;27;1122;-65
2023/06/30 01:45:14;;;;;;;;;;;;;;;;;;5134994;27;853;-66
2023/06/30 01:47:39;;;;;;;;;;;;;;;;;;5134879;27;1031;-65
2023/06/30 01:50:05;;;;;;;;;;;;;;;;;;5134055;27;873;-65
2023/06/30 01:52:31;;;;;;;;;;;;;;;;;;5135241;27;853;-65
2023/06/30 01:54:56;;;;;;;;;;;;;;;;;;5134252;27;952;-66
2023/06/30 01:57:21;;;;;;;;;;;;;;;;;;5134318;27;1086;-65
2023/06/30 01:59:47;;;;;;;;;;;;;;;;;;5133850;27;1901;-66
2023/06/30 02:02:12;;;;;;;;;;;;;;;;;;5134318;27;924;-65
2023/06/30 02:04:37;;;;;;;;;;;;;;;;;;5134296;27;957;-65
2023/06/30 02:07:03;;;;;;;;;;;;;;;;;;5133777;27;1380;-65
2023/06/30 02:09:29;;;;;;;;;;;;;;;;;;5134295;27;849;-65
2023/06/30 02:11:54;;;;;;;;;;;;;;;;;;5134154;27;888;-65
2023/06/30 02:14:19;;;;;;;;;;;;;;;;;;5134998;27;861;-65
2023/06/30 02:16:45;;;;;;;;;;;;;;;;;;5134233;27;861;-65
2023/06/30 02:19:10;;;;;;;;;;;;;;;;;;5134688;27;1890;-65
2023/06/30 02:21:35;;;;;;;;;;;;;;;;;;5116938;27;964;-65
2023/06/30 02:24:00;;;;;;;;;;;;;;;;;;5134708;27;964;-65
2023/06/30 02:26:26;;;;;;;;;;;;;;;;;;5134946;27;916;-65
2023/06/30 02:28:51;;;;;;;;;;;;;;;;;;5134007;27;964;-65
2023/06/30 02:31:16;;;;;;;;;;;;;;;;;;5134697;27;920;-64
2023/06/30 02:33:41;;;;;;;;;;;;;;;;;;5133780;27;1027;-64
2023/06/30 02:36:07;;;;;;;;;;;;;;;;;;5134788;27;861;-65
2023/06/30 02:38:32;;;;;;;;;;;;;;;;;;5134209;27;1951;-64
2023/06/30 02:40:57;;;;;;;;;;;;;;;;;;5133942;27;948;-65
2023/06/30 02:43:23;;;;;;;;;;;;;;;;;;5134223;27;916;-64
2023/06/30 02:45:48;;;;;;;;;;;;;;;;;;5133357;27;958;-64
2023/06/30 02:48:13;;;;;;;;;;;;;;;;;;5133499;27;999;-65
2023/06/30 02:50:39;;;;;;;;;;;;;;;;;;5133480;27;1027;-65
2023/06/30 02:53:04;;;;;;;;;;;;;;;;;;5133025;27;848;-65
2023/06/30 02:55:30;;;;;;;;;;;;;;;;;;5133620;27;908;-64
2023/06/30 02:57:56;;;;;;;;;;;;;;;;;;5133231;27;2447;-64
2023/06/30 03:00:21;;;;;;;;;;;;;;;;;;5133886;27;916;-65
2023/06/30 03:02:47;;;;;;;;;;;;;;;;;;5132872;27;988;-64
2023/06/30 03:05:12;;;;;;;;;;;;;;;;;;5114420;28;947;-64
2023/06/30 03:07:38;;;;;;;;;;;;;;;;;;5132598;27;1327;-66
2023/06/30 03:10:03;;;;;;;;;;;;;;;;;;5132798;27;893;-66
2023/06/30 03:12:28;;;;;;;;;;;;;;;;;;5132761;28;1009;-65
2023/06/30 03:14:54;;;;;;;;;;;;;;;;;;5132426;27;869;-64
2023/06/30 03:17:19;;;;;;;;;;;;;;;;;;5133083;28;869;-66
2023/06/30 03:19:44;;;;;;;;;;;;;;;;;;5132421;28;1914;-65
2023/06/30 03:22:10;;;;;;;;;;;;;;;;;;5133119;28;896;-64
2023/06/30 03:24:35;;;;;;;;;;;;;;;;;;5115061;28;1179;-64
2023/06/30 03:27:01;;;;;;;;;;;;;;;;;;5132675;28;999;-65
2023/06/30 03:29:26;;;;;;;;;;;;;;;;;;5133484;28;952;-66
2023/06/30 03:31:51;;;;;;;;;;;;;;;;;;5132720;28;892;-65
2023/06/30 03:34:16;;;;;;;;;;;;;;;;;;5133029;28;1046;-66
2023/06/30 03:36:42;;;;;;;;;;;;;;;;;;5133464;28;845;-65
2023/06/30 03:39:07;;;;;;;;;;;;;;;;;;5132394;28;1952;-65
2023/06/30 03:41:32;;;;;;;;;;;;;;;;;;5132633;28;936;-65
2023/06/30 03:43:57;;;;;;;;;;;;;;;;;;5132960;28;960;-66
2023/06/30 03:46:23;;;;;;;;;;;;;;;;;;5133193;28;877;-66
2023/06/30 03:48:48;;;;;;;;;;;;;;;;;;5132814;28;988;-66
2023/06/30 03:51:13;;;;;;;;;;;;;;;;;;5132688;28;944;-65
2023/06/30 03:53:40;;;;;;;;;;;;;;;;;;5132702;28;1081;-65
2023/06/30 03:56:06;;;;;;;;;;;;;;;;;;5131898;28;849;-66
2023/06/30 03:58:31;;;;;;;;;;;;;;;;;;5132014;28;1955;-65
2023/06/30 04:00:56;;;;;;;;;;;;;;;;;;5114071;28;911;-65
2023/06/30 04:03:22;;;;;;;;;;;;;;;;;;5114519;28;1450;-65
2023/06/30 04:05:47;;;;;;;;;;;;;;;;;;5114505;28;2449;-64
2023/06/30 04:08:12;;;;;;;;;;;;;;;;;;5133693;28;912;-65
2023/06/30 04:10:37;;;;;;;;;;;;;;;;;;5133334;28;865;-65
2023/06/30 04:13:06;;;;;;;;;;;;;;;;;;5133015;28;964;-65
2023/06/30 04:15:31;;;;;;;;;;;;;;;;;;5133475;28;829;-65
2023/06/30 04:17:56;;;;;;;;;;;;;;;;;;5132706;28;1979;-65
2023/06/30 04:20:22;;;;;;;;;;;;;;;;;;5133160;28;880;-65
2023/06/30 04:22:47;;;;;;;;;;;;;;;;;;5132829;28;1058;-64
2023/06/30 04:25:13;;;;;;;;;;;;;;;;;;5114681;27;829;-65
2023/06/30 04:27:38;;;;;;;;;;;;;;;;;;5134939;27;996;-65
2023/06/30 04:30:04;;;;;;;;;;;;;;;;;;5136421;27;873;-65
2023/06/30 04:32:29;;;;;;;;;;;;;;;;;;5136981;27;913;-65
2023/06/30 04:34:57;;;;;;;;;;;;;;;;;;5117844;27;916;-65
2023/06/30 04:37:23;;;;;;;;;;;;;;;;;;5118180;27;825;-65
2023/06/30 04:39:50;;;;;;;;;;;;;;;;;;5135631;27;1948;-65
2023/06/30 04:42:15;;;;;;;;;;;;;;;;;;5136147;27;844;-65
2023/06/30 04:44:40;;;;;;;;;;;;;;;;;;5135443;27;924;-65
2023/06/30 04:47:06;;;;;;;;;;;;;;;;;;5135742;27;1016;-65
2023/06/30 04:49:31;;;;;;;;;;;;;;;;;;5135736;27;833;-65
2023/06/30 04:51:57;;;;;;;;;;;;;;;;;;5135454;27;924;-65
2023/06/30 04:54:22;;;;;;;;;;;;;;;;;;5117554;27;861;-65
2023/06/30 04:56:48;;;;;;;;;;;;;;;;;;5135042;27;916;-65
2023/06/30 04:59:13;;;;;;;;;;;;;;;;;;5133595;27;1897;-64
2023/06/30 05:01:38;;;;;;;;;;;;;;;;;;5131462;27;1151;-64
2023/06/30 05:04:04;;;;;;;;;;;;;;;;;;5119804;27;1135;-64
2023/06/30 05:06:29;;;;;;;;;;;;;;;;;;5123982;27;1202;-65
2023/06/30 05:08:54;;;;;;;;;;;;;;;;;;5135086;27;898;-65
2023/06/30 05:11:19;;;;;;;;;;;;;;;;;;5134856;27;959;-65
2023/06/30 05:13:44;;;;;;;;;;;;;;;;;;5135506;27;818;-64
2023/06/30 05:16:13;;;;;;;;;;;;;;;;;;5134664;27;904;-64
2023/06/30 05:18:38;;;;;;;;;;;;;;;;;;5135180;27;1949;-65
2023/06/30 05:21:05;;;;;;;;;;;;;;;;;;5134574;27;829;-65
2023/06/30 05:23:30;;;;;;;;;;;;;;;;;;5116804;27;909;-64
2023/06/30 05:25:58;;;;;;;;;;;;;;;;;;5134943;27;924;-65
2023/06/30 05:28:24;;;;;;;;;;;;;;;;;;5135070;27;909;-66
2023/06/30 05:30:49;;;;;;;;;;;;;;;;;;5134862;27;1369;-66
2023/06/30 05:33:14;;;;;;;;;;;;;;;;;;5135103;27;1016;-66
2023/06/30 05:35:40;;;;;;;;;;;;;;;;;;5134463;27;1057;-65
2023/06/30 05:38:05;;;;;;;;;;;;;;;;;;5133921;27;1965;-65
2023/06/30 05:40:30;;;;;;;;;;;;;;;;;;5135188;27;1000;-65
2023/06/30 05:42:55;;;;;;;;;;;;;;;;;;5135208;27;870;-65
2023/06/30 05:45:21;;;;;;;;;;;;;;;;;;5135665;27;885;-64
2023/06/30 05:47:46;;;;;;;;;;;;;;;;;;5135393;27;853;-64
2023/06/30 05:50:11;;;;;;;;;;;;;;;;;;5116344;27;1008;-63
2023/06/30 05:52:37;;;;;;;;;;;;;;;;;;5135412;27;912;-63
2023/06/30 05:55:02;;;;;;;;;;;;;;;;;;5135048;27;933;-63
2023/06/30 05:57:27;;;;;;;;;;;;;;;;;;5135003;27;958;-64
2023/06/30 05:59:53;;;;;;;;;;;;;;;;;;5132760;27;1901;-64
2023/06/30 06:02:18;;;;;;;;;;;;;;;;;;5119259;27;1143;-63
2023/06/30 06:04:43;;;;;;;;;;;;;;;;;;5120342;27;1171;-63
2023/06/30 06:07:08;;;;;;;;;;;;;;;;;;5133963;27;1076;-63
2023/06/30 06:09:34;;;;;;;;;;;;;;;;;;5133922;27;826;-63
2023/06/30 06:12:00;;;;;;;;;;;;;;;;;;5133424;27;849;-63
2023/06/30 06:14:26;;;;;;;;;;;;;;;;;;5134071;27;904;-63
2023/06/30 06:16:51;;;;;;;;;;;;;;;;;;5133726;27;1004;-63
2023/06/30 06:19:17;;;;;;;;;;;;;;;;;;5115619;27;1961;-63
2023/06/30 06:21:42;;;;;;;;;;;;;;;;;;5133610;27;861;-63
2023/06/30 06:24:07;;;;;;;;;;;;;;;;;;5132883;27;1016;-64
2023/06/30 06:26:33;;;;;;;;;;;;;;;;;;5133780;27;1016;-63
2023/06/30 06:28:58;;;;;;;;;;;;;;;;;;5133925;27;844;-63
2023/06/30 06:31:24;;;;;;;;;;;;;;;;;;5133309;27;841;-63
2023/06/30 06:33:49;;;;;;;;;;;;;;;;;;5133179;27;924;-64
2023/06/30 06:36:15;;;;;;;;;;;;;;;;;;5133451;27;951;-64
2023/06/30 06:38:40;;;;;;;;;;;;;;;;;;5133488;27;1901;-63
2023/06/30 06:41:06;;;;;;;;;;;;;;;;;;5133409;27;956;-63
2023/06/30 06:43:31;;;;;;;;;;;;;;;;;;5133345;27;900;-63
2023/06/30 06:45:56;;;;;;;;;;;;;;;;;;5133684;27;876;-63
2023/06/30 06:48:25;;;;;;;;;;;;;;;;;;5133892;27;900;-63
2023/06/30 06:50:54;;;;;;;;;;;;;;;;;;5132529;27;968;-64
2023/06/30 06:53:20;;;;;;;;;;;;;;;;;;5133633;27;884;-64
2023/06/30 06:55:46;;;;;;;;;;;;;;;;;;5133208;27;1055;-64
2023/06/30 06:58:11;;;;;;;;;;;;;;;;;;5133341;27;1940;-64
2023/06/30 07:00:37;;;;;;;;;;;;;;;;;;5133427;27;1099;-64
2023/06/30 07:03:03;;;;;;;;;;;;;;;;;;5132154;27;1253;-64
2023/06/30 07:05:28;;;;;;;;;;;;;;;;;;5130807;27;1210;-64
2023/06/30 07:07:53;;;;;;;;;;;;;;;;;;5133495;27;1155;-64
2023/06/30 07:10:18;;;;;;;;;;;;;;;;;;5133346;27;851;-64
2023/06/30 07:12:44;;;;;;;;;;;;;;;;;;5115759;28;833;-64
2023/06/30 07:15:09;;;;;;;;;;;;;;;;;;5134088;28;1015;-64
2023/06/30 07:17:34;;;;;;;;;;;;;;;;;;5113471;28;1278;-64
2023/06/30 07:20:00;;;;;;;;;;;;;;;;;;5110073;28;1989;-64
2023/06/30 07:22:25;;;;;;;;;;;;;;;;;;5125085;28;1005;-64
2023/06/30 07:24:50;;;;;;;;;;;;;;;;;;5112140;28;1151;-64
2023/06/30 07:27:15;;;;;;;;;;;;;;;;;;5113812;28;1024;-64
2023/06/30 07:29:41;;;;;;;;;;;;;;;;;;5113962;28;992;-65
2023/06/30 07:32:06;;;;;;;;;;;;;;;;;;5104495;28;1167;-64
2023/06/30 07:34:33;;;;;;;;;;;;;;;;;;5132857;28;1119;-64
2023/06/30 07:36:59;;;;;;;;;;;;;;;;;;5133180;28;825;-63
2023/06/30 07:39:24;;;;;;;;;;;;;;;;;;5133112;28;1898;-64
2023/06/30 07:41:51;;;;;;;;;;;;;;;;;;5133345;28;1079;-64
2023/06/30 07:44:16;;;;;;;;;;;;;;;;;;5133288;28;940;-64
2023/06/30 07:46:41;;;;;;;;;;;;;;;;;;5133089;28;857;-64
2023/06/30 07:49:07;;;;;;;;;;;;;;;;;;5132740;28;984;-64
2023/06/30 07:51:32;;;;;;;;;;;;;;;;;;5132763;28;1008;-64
2023/06/30 07:53:57;;;;;;;;;;;;;;;;;;5131940;28;885;-64
2023/06/30 07:56:23;;;;;;;;;;;;;;;;;;5114102;28;1046;-64
2023/06/30 07:58:48;;;;;;;;;;;;;;;;;;5132732;28;1953;-64
2023/06/30 08:01:14;;;;;;;;;;;;;;;;;;5134606;27;1003;-65
2023/06/30 08:03:39;;;;;;;;;;;;;;;;;;5137415;27;899;-64
2023/06/30 08:06:04;;;;;;;;;;;;;;;;;;5136396;27;1036;-64
2023/06/30 08:08:31;;;;;;;;;;;;;;;;;;5137010;27;763;-64
2023/06/30 08:10:56;;;;;;;;;;;;;;;;;;5137113;27;920;-64
2023/06/30 08:13:22;;;;;;;;;;;;;;;;;;5137081;27;806;-64
2023/06/30 08:15:47;;;;;;;;;;;;;;;;;;5136863;27;833;-64
2023/06/30 08:18:12;;;;;;;;;;;;;;;;;;5136903;27;1922;-64
2023/06/30 08:20:38;;;;;;;;;;;;;;;;;;5136557;27;828;-64
2023/06/30 08:23:03;;;;;;;;;;;;;;;;;;5136807;27;896;-64
2023/06/30 08:25:29;;;;;;;;;;;;;;;;;;5136505;27;1011;-64
2023/06/30 08:27:54;;;;;;;;;;;;;;;;;;5137408;27;857;-64
2023/06/30 08:30:19;;;;;;;;;;;;;;;;;;5136596;27;825;-64
2023/06/30 08:32:45;;;;;;;;;;;;;;;;;;5136625;27;860;-65
2023/06/30 08:35:10;;;;;;;;;;;;;;;;;;5136379;27;916;-64
2023/06/30 08:37:37;;;;;;;;;;;;;;;;;;5136393;27;909;-65
2023/06/30 08:40:03;;;;;;;;;;;;;;;;;;5136210;27;1968;-64
2023/06/30 08:42:30;;;;;;;;;;;;;;;;;;5136149;27;876;-64
2023/06/30 08:44:56;;;;;;;;;;;;;;;;;;5136276;27;817;-64
2023/06/30 08:47:24;;;;;;;;;;;;;;;;;;5135963;27;1021;-64
2023/06/30 08:49:49;;;;;;;;;;;;;;;;;;5136009;27;883;-64
2023/06/30 08:52:15;;;;;;;;;;;;;;;;;;5136296;27;975;-64
2023/06/30 08:54:40;;;;;;;;;;;;;;;;;;5117808;27;967;-64
2023/06/30 08:57:06;;;;;;;;;;;;;;;;;;5117947;27;1070;-64
2023/06/30 08:59:31;;;;;;;;;;;;;;;;;;5136616;27;1948;-64
2023/06/30 09:01:57;;;;;;;;;;;;;;;;;;5135753;27;1237;-64
2023/06/30 09:04:22;;;;;;;;;;;;;;;;;;5115699;27;1155;-64
2023/06/30 09:06:48;;;;;;;;;;;;;;;;;;5135244;27;1337;-64
2023/06/30 09:09:25;;;;;;;;;;;;;;;;;;5136236;27;955;-64
2023/06/30 09:11:51;;;;;;;;;;;;;;;;;;5135725;27;959;-64
2023/06/30 09:14:17;;;;;;;;;;;;;;;;;;5135571;27;904;-65
2023/06/30 09:16:42;;;;;;;;;;;;;;;;;;5135228;27;832;-64
2023/06/30 09:19:08;;;;;;;;;;;;;;;;;;5134933;27;1968;-64
2023/06/30 09:21:33;;;;;;;;;;;;;;;;;;5135463;27;952;-62
2023/06/30 09:23:59;;;;;;;;;;;;;;;;;;5135527;27;944;-64
2023/06/30 09:26:24;;;;;;;;;;;;;;;;;;5117096;27;850;-64
2023/06/30 09:28:53;;;;;;;;;;;;;;;;;;5116352;27;695;-64
2023/06/30 09:31:27;;;;;;;;;;;;;;;;;;5135504;27;948;-64
2023/06/30 09:33:52;;;;;;;;;;;;;;;;;;5135336;27;921;-64
2023/06/30 09:36:18;;;;;;;;;;;;;;;;;;5135686;27;786;-64
2023/06/30 09:38:43;;;;;;;;;;;;;;;;;;5134831;27;1882;-65
2023/06/30 09:41:18;;;;;;;;;;;;;;;;;;5135054;27;845;-64
2023/06/30 09:43:43;;;;;;;;;;;;;;;;;;5135270;27;936;-65
2023/06/30 09:46:09;;;;;;;;;;;;;;;;;;5135476;27;1051;-65
2023/06/30 09:48:35;;;;;;;;;;;;;;;;;;5135689;27;794;-64
2023/06/30 09:51:00;;;;;;;;;;;;;;;;;;5134987;27;815;-64
2023/06/30 09:53:25;;;;;;;;;;;;;;;;;;5135131;27;901;-65
2023/06/30 09:55:52;;;;;;;;;;;;;;;;;;5135674;27;833;-64
2023/06/30 09:58:20;;;;;;;;;;;;;;;;;;5116860;27;1886;-64
2023/06/30 10:00:46;;;;;;;;;;;;;;;;;;5134124;27;933;-64
2023/06/30 10:03:16;;;;;;;;;;;;;;;;;;5134671;27;885;-65
2023/06/30 10:05:42;;;;;;;;;;;;;;;;;;5135028;27;1302;-64
2023/06/30 10:08:07;;;;;;;;;;;;;;;;;;5134858;27;917;-64
2023/06/30 10:10:32;;;;;;;;;;;;;;;;;;5116451;27;929;-63
2023/06/30 10:12:58;;;;;;;;;;;;;;;;;;5134936;27;832;-63
2023/06/30 10:15:24;;;;;;;;;;;;;;;;;;5135276;27;865;-63
2023/06/30 10:17:49;;;;;;;;;;;;;;;;;;5134367;27;911;-63
2023/06/30 10:20:15;;;;;;;;;;;;;;;;;;5134784;27;1973;-66
2023/06/30 10:22:42;;;;;;;;;;;;;;;;;;5134650;27;833;-66
2023/06/30 10:25:08;;;;;;;;;;;;;;;;;;5134473;27;1035;-66
2023/06/30 10:27:34;;;;;;;;;;;;;;;;;;5133969;27;861;-66
2023/06/30 10:30:00;;;;;;;;;;;;;;;;;;5134115;27;865;-66
2023/06/30 10:32:25;;;;;;;;;;;;;;;;;;5134257;27;913;-67
2023/06/30 10:34:50;;;;;;;;;;;;;;;;;;5133533;27;1066;-67
2023/06/30 10:37:16;;;;;;;;;;;;;;;;;;5133986;27;870;-67
2023/06/30 10:39:43;;;;;;;;;;;;;;;;;;5134217;27;1973;-67
2023/06/30 10:42:10;;;;;;;;;;;;;;;;;;5134443;27;845;-67
2023/06/30 10:44:39;;;;;;;;;;;;;;;;;;5134150;27;1236;-67
2023/06/30 10:47:05;;;;;;;;;;;;;;;;;;5134551;27;980;-67
2023/06/30 10:49:33;;;;;;;;;;;;;;;;;;5134017;27;756;-68
2023/06/30 10:52:00;;;;;;;;;;;;;;;;;;5134666;27;809;-67
2023/06/30 10:54:26;;;;;;;;;;;;;;;;;;5135257;27;794;-67
2023/06/30 10:56:52;;;;;;;;;;;;;;;;;;5134333;27;892;-67
2023/06/30 10:59:23;;;;;;;;;;;;;;;;;;5134645;27;1897;-68
2023/06/30 11:02:07;;;;;;;;;;;;;;;;;;5133488;27;925;-67
2023/06/30 11:04:39;;;;;;;;;;;;;;;;;;5134120;27;869;-66
2023/06/30 11:07:06;;;;;;;;;;;;;;;;;;5115212;27;1342;-66
2023/06/30 11:09:58;;;;;;;;;;;;;;;;;;5133286;27;908;-67
2023/06/30 11:12:24;;;;;;;;;;;;;;;;;;5129871;27;1258;-67
2023/06/30 11:14:56;;;;;;;;;;;;;;;;;;5114648;28;1480;-66
2023/06/30 11:17:22;;;;;;;;;;;;;;;;;;5115055;28;1206;-67
2023/06/30 11:20:06;;;;;;;;;;;;;;;;;;5133261;28;1989;-67
2023/06/30 11:22:31;;;;;;;;;;;;;;;;;;5133720;28;921;-67
2023/06/30 11:24:57;;;;;;;;;;;;;;;;;;5114669;28;1474;-67
2023/06/30 11:27:22;;;;;;;;;;;;;;;;;;5114463;28;1624;-67
2023/06/30 11:29:49;;;;;;;;;;;;;;;;;;5114768;28;1062;-66
2023/06/30 11:32:24;;;;;;;;;;;;;;;;;;5132365;28;818;-67
2023/06/30 11:34:49;;;;;;;;;;;;;;;;;;5132772;27;857;-67
2023/06/30 11:37:15;;;;;;;;;;;;;;;;;;5136920;27;932;-67
2023/06/30 11:39:40;;;;;;;;;;;;;;;;;;5137703;27;1971;-67
2023/06/30 11:42:05;;;;;;;;;;;;;;;;;;5119163;27;928;-67
2023/06/30 11:44:35;;;;;;;;;;;;;;;;;;5137701;27;956;-67
2023/06/30 11:47:00;;;;;;;;;;;;;;;;;;5136983;27;1171;-67
2023/06/30 11:49:26;;;;;;;;;;;;;;;;;;5138220;27;881;-67
2023/06/30 11:51:51;;;;;;;;;;;;;;;;;;5137071;27;924;-67
2023/06/30 11:54:17;;;;;;;;;;;;;;;;;;5137401;27;940;-67
2023/06/30 11:56:42;;;;;;;;;;;;;;;;;;5137148;27;1025;-67
2023/06/30 11:59:07;;;;;;;;;;;;;;;;;;5118658;27;1902;-67
2023/06/30 12:01:32;;;;;;;;;;;;;;;;;;5137713;27;865;-67
2023/06/30 12:03:59;;;;;;;;;;;;;;;;;;5136548;27;860;-67
2023/06/30 12:06:25;;;;;;;;;;;;;;;;;;5136864;27;1071;-68
2023/06/30 12:08:50;;;;;;;;;;;;;;;;;;5136470;27;880;-67
2023/06/30 12:11:15;;;;;;;;;;;;;;;;;;5136691;27;1222;-67
2023/06/30 12:13:41;;;;;;;;;;;;;;;;;;5134878;27;1214;-67
2023/06/30 12:16:07;;;;;;;;;;;;;;;;;;5134847;27;1186;-68
2023/06/30 12:18:35;;;;;;;;;;;;;;;;;;5129729;27;1959;-67
2023/06/30 12:21:00;;;;;;;;;;;;;;;;;;5118749;27;1154;-67
2023/06/30 12:23:29;;;;;;;;;;;;;;;;;;5128298;27;1199;-68
2023/06/30 12:25:56;;;;;;;;;;;;;;;;;;5115559;28;837;-67
2023/06/30 12:28:21;;;;;;;;;;;;;;;;;;5115704;28;794;-68
2023/06/30 12:30:47;;;;;;;;;;;;;;;;;;5115506;28;979;-68
2023/06/30 12:33:18;;;;;;;;;;;;;;;;;;5097149;28;878;-68
2023/06/30 12:35:44;;;;;;;;;;;;;;;;;;5115527;28;944;-68
2023/06/30 12:38:09;;;;;;;;;;;;;;;;;;5115840;28;861;-68
2023/06/30 12:40:35;;;;;;;;;;;;;;;;;;5115920;28;853;-68
2023/06/30 12:43:00;;;;;;;;;;;;;;;;;;5115676;28;1101;-68
2023/06/30 12:45:26;;;;;;;;;;;;;;;;;;5116263;28;885;-68
2023/06/30 12:47:51;;;;;;;;;;;;;;;;;;5114429;28;1055;-68
2023/06/30 12:50:17;;;;;;;;;;;;;;;;;;5116260;28;876;-68
2023/06/30 12:52:42;;;;;;;;;;;;;;;;;;5095528;28;1214;-68
2023/06/30 12:55:09;;;;;;;;;;;;;;;;;;5094893;28;1147;-68
2023/06/30 12:57:34;;;;;;;;;;;;;;;;;;5113830;28;1005;-68
2023/06/30 12:59:59;;;;;;;;;;;;;;;;;;5113638;28;1894;-67
2023/06/30 13:02:25;;;;;;;;;;;;;;;;;;5114644;28;933;-68
2023/06/30 13:04:51;;;;;;;;;;;;;;;;;;5113484;28;916;-67
2023/06/30 13:07:16;;;;;;;;;;;;;;;;;;5125249;27;1128;-68
2023/06/30 13:09:42;;;;;;;;;;;;;;;;;;5136415;27;1083;-68
2023/06/30 13:12:07;;;;;;;;;;;;;;;;;;5117269;27;1294;-68
2023/06/30 13:14:33;;;;;;;;;;;;;;;;;;5136696;27;925;-68
2023/06/30 13:16:58;;;;;;;;;;;;;;;;;;5135881;27;987;-68
2023/06/30 13:19:24;;;;;;;;;;;;;;;;;;5136179;27;1917;-68
2023/06/30 13:21:50;;;;;;;;;;;;;;;;;;5135813;27;960;-69
2023/06/30 13:24:15;;;;;;;;;;;;;;;;;;5117493;27;1281;-67
2023/06/30 13:26:40;;;;;;;;;;;;;;;;;;5117713;27;1171;-67
2023/06/30 13:29:06;;;;;;;;;;;;;;;;;;5135756;27;830;-67
2023/06/30 13:31:31;;;;;;;;;;;;;;;;;;5136007;27;897;-68
2023/06/30 13:33:56;;;;;;;;;;;;;;;;;;5116227;27;1527;-66
2023/06/30 13:36:21;;;;;;;;;;;;;;;;;;5136113;27;813;-67
2023/06/30 13:38:47;;;;;;;;;;;;;;;;;;5135422;27;1959;-66
2023/06/30 13:41:12;;;;;;;;;;;;;;;;;;5135830;27;999;-67
2023/06/30 13:43:37;;;;;;;;;;;;;;;;;;5116974;27;968;-67
2023/06/30 13:46:04;;;;;;;;;;;;;;;;;;5116557;27;984;-66
2023/06/30 13:48:29;;;;;;;;;;;;;;;;;;5116710;27;1183;-67
2023/06/30 13:50:54;;;;;;;;;;;;;;;;;;5134390;27;932;-67
2023/06/30 13:53:19;;;;;;;;;;;;;;;;;;5116703;27;818;-66
2023/06/30 13:55:44;;;;;;;;;;;;;;;;;;5134739;27;947;-67
2023/06/30 13:58:10;;;;;;;;;;;;;;;;;;5133967;27;1045;-67
2023/06/30 14:00:35;;;;;;;;;;;;;;;;;;5116241;27;1944;-67
2023/06/30 14:03:01;;;;;;;;;;;;;;;;;;5134633;27;900;-67
2023/06/30 14:05:26;;;;;;;;;;;;;;;;;;5116344;27;928;-67
2023/06/30 14:07:51;;;;;;;;;;;;;;;;;;5134369;27;1049;-67
2023/06/30 14:10:17;;;;;;;;;;;;;;;;;;5134729;27;849;-67
2023/06/30 14:12:42;;;;;;;;;;;;;;;;;;5134158;27;924;-67
2023/06/30 14:15:07;;;;;;;;;;;;;;;;;;5133518;27;904;-67
2023/06/30 14:17:33;;;;;;;;;;;;;;;;;;5115430;27;901;-67
2023/06/30 14:19:58;;;;;;;;;;;;;;;;;;5133336;27;1964;-67
2023/06/30 14:22:23;;;;;;;;;;;;;;;;;;5134028;27;845;-67
2023/06/30 14:24:49;;;;;;;;;;;;;;;;;;5116033;27;912;-66
2023/06/30 14:27:14;;;;;;;;;;;;;;;;;;5115519;27;1091;-66
2023/06/30 14:29:42;;;;;;;;;;;;;;;;;;5134073;27;841;-66
2023/06/30 14:32:08;;;;;;;;;;;;;;;;;;5098785;27;912;-67
2023/06/30 14:34:33;;;;;;;;;;;;;;;;;;5134225;27;841;-67
2023/06/30 14:36:58;;;;;;;;;;;;;;;;;;5115434;27;1169;-66
2023/06/30 14:39:24;;;;;;;;;;;;;;;;;;5134779;27;1902;-65
2023/06/30 14:41:49;;;;;;;;;;;;;;;;;;5134892;27;900;-67
2023/06/30 14:44:14;;;;;;;;;;;;;;;;;;5134198;27;833;-67
2023/06/30 14:46:40;;;;;;;;;;;;;;;;;;5134753;27;900;-67
2023/06/30 14:49:05;;;;;;;;;;;;;;;;;;5134063;27;1062;-68
2023/06/30 14:51:30;;;;;;;;;;;;;;;;;;5135006;27;821;-67
2023/06/30 14:53:55;;;;;;;;;;;;;;;;;;5134020;27;870;-67
2023/06/30 14:56:21;;;;;;;;;;;;;;;;;;5134627;27;885;-67
2023/06/30 14:58:49;;;;;;;;;;;;;;;;;;5115865;27;1897;-66
2023/06/30 15:01:15;;;;;;;;;;;;;;;;;;5133536;27;1215;-67
2023/06/30 15:03:40;;;;;;;;;;;;;;;;;;5115986;27;1254;-67
2023/06/30 15:06:05;;;;;;;;;;;;;;;;;;5133261;27;1283;-68
2023/06/30 15:08:31;;;;;;;;;;;;;;;;;;5134151;27;1254;-67
2023/06/30 15:10:56;;;;;;;;;;;;;;;;;;5133096;27;920;-67
2023/06/30 15:13:21;;;;;;;;;;;;;;;;;;5133159;27;1011;-66
2023/06/30 15:15:46;;;;;;;;;;;;;;;;;;5114402;28;1096;-66
2023/06/30 15:18:12;;;;;;;;;;;;;;;;;;5133343;28;987;-67
2023/06/30 15:20:37;;;;;;;;;;;;;;;;;;5097723;28;1906;-67
2023/06/30 15:23:02;;;;;;;;;;;;;;;;;;5132725;28;857;-67
2023/06/30 15:25:28;;;;;;;;;;;;;;;;;;5133120;28;991;-67
2023/06/30 15:27:55;;;;;;;;;;;;;;;;;;5133485;28;825;-66
2023/06/30 15:30:20;;;;;;;;;;;;;;;;;;5114404;28;921;-68
2023/06/30 15:32:46;;;;;;;;;;;;;;;;;;5133193;28;646;-68
2023/06/30 15:35:11;;;;;;;;;;;;;;;;;;5132614;28;782;-67
2023/06/30 15:37:37;;;;;;;;;;;;;;;;;;5114448;28;932;-67
2023/06/30 15:40:02;;;;;;;;;;;;;;;;;;5132387;28;1885;-67
2023/06/30 15:42:34;;;;;;;;;;;;;;;;;;5132900;28;937;-68
2023/06/30 15:45:00;;;;;;;;;;;;;;;;;;5096058;28;1455;-67
2023/06/30 15:47:25;;;;;;;;;;;;;;;;;;5129849;28;1171;-67
2023/06/30 15:49:51;;;;;;;;;;;;;;;;;;5130595;28;1144;-67
2023/06/30 15:52:16;;;;;;;;;;;;;;;;;;5132594;28;1170;-68
2023/06/30 15:54:41;;;;;;;;;;;;;;;;;;5132982;28;912;-67
2023/06/30 15:57:07;;;;;;;;;;;;;;;;;;5113677;28;1026;-67
2023/06/30 15:59:32;;;;;;;;;;;;;;;;;;5132964;28;1957;-66
2023/06/30 16:02:00;;;;;;;;;;;;;;;;;;5132926;28;988;-69
2023/06/30 16:04:26;;;;;;;;;;;;;;;;;;5132726;28;888;-67
2023/06/30 16:06:51;;;;;;;;;;;;;;;;;;5132575;28;1433;-67
2023/06/30 16:09:17;;;;;;;;;;;;;;;;;;5133276;28;1062;-67
2023/06/30 16:11:42;;;;;;;;;;;;;;;;;;5132501;28;1158;-67
2023/06/30 16:14:07;;;;;;;;;;;;;;;;;;5128895;28;1155;-65
2023/06/30 16:16:33;;;;;;;;;;;;;;;;;;5110919;28;1171;-68
2023/06/30 16:18:58;;;;;;;;;;;;;;;;;;5112224;28;1901;-67
2023/06/30 16:21:23;;;;;;;;;;;;;;;;;;5094380;28;1090;-68
2023/06/30 16:23:50;;;;;;;;;;;;;;;;;;5081221;28;867;-68
2023/06/30 16:26:16;;;;;;;;;;;;;;;;;;5098098;28;968;-68
2023/06/30 16:28:41;;;;;;;;;;;;;;;;;;5116793;28;837;-68
2023/06/30 16:31:06;;;;;;;;;;;;;;;;;;5116220;28;870;-68
2023/06/30 16:33:31;;;;;;;;;;;;;;;;;;5116052;28;975;-68
2023/06/30 16:35:57;;;;;;;;;;;;;;;;;;5116127;28;1042;-68
2023/06/30 16:38:22;;;;;;;;;;;;;;;;;;5081029;28;1897;-68
2023/06/30 16:40:47;;;;;;;;;;;;;;;;;;5116381;28;936;-68
2023/06/30 16:43:13;;;;;;;;;;;;;;;;;;5115861;28;856;-68
2023/06/30 16:45:38;;;;;;;;;;;;;;;;;;5116298;28;987;-68
2023/06/30 16:48:04;;;;;;;;;;;;;;;;;;5115385;28;949;-68
2023/06/30 16:50:29;;;;;;;;;;;;;;;;;;5115896;28;923;-68
2023/06/30 16:52:54;;;;;;;;;;;;;;;;;;5116072;28;948;-69
2023/06/30 16:55:19;;;;;;;;;;;;;;;;;;5097207;28;1277;-69
2023/06/30 16:57:46;;;;;;;;;;;;;;;;;;5115792;28;923;-69
2023/06/30 17:00:12;;;;;;;;;;;;;;;;;;5097105;28;1969;-69
2023/06/30 17:02:37;;;;;;;;;;;;;;;;;;5097023;28;1191;-69